Time;durP1;ratioP1;P1;durP2;ratioP2;P2;SDS_P1;SDS_P2;PMS_P1;PMS_P2;Temp;Humidity;BMP_temperature;BMP_pressure;BME280_temperature;BME280_humidity;BME280_pressure;Samples;Min_cycle;Max_cycle;Signal;HPM_P1;HPM_P2
2023/06/14 00:01:46;;;;;;;;;;;12.00;83.00;;;;;;5068609;23;19920;-78
2023/06/14 00:04:12;;;;;;;;;;;11.90;83.40;;;;;;5065984;28;19974;-78
2023/06/14 00:06:38;;;;;;;;;;;11.80;83.80;;;;;;5056631;28;19923;-78
2023/06/14 00:09:04;;;;;;;;;;;11.60;84.10;;;;;;5059606;28;19980;-78
2023/06/14 00:11:30;;;;;;;;;;;11.50;84.40;;;;;;5057089;28;19912;-78
2023/06/14 00:13:56;;;;;;;;;;;11.40;84.50;;;;;;5065887;28;19905;-78
2023/06/14 00:16:22;;;;;;;;;;;11.30;84.80;;;;;;5056617;28;20376;-78
2023/06/14 00:18:48;;;;;;;;;;;11.30;85.20;;;;;;5065706;22;19920;-73
2023/06/14 00:21:14;;;;;;;;;;;11.30;85.30;;;;;;5034466;28;19920;-74
2023/06/14 00:23:39;;;;;;;;;;;11.30;85.40;;;;;;5034537;28;19980;-74
2023/06/14 00:26:05;;;;;;;;;;;11.30;85.70;;;;;;5034738;28;19916;-74
2023/06/14 00:28:31;;;;;;;;;;;11.40;86.40;;;;;;5034424;28;19948;-71
2023/06/14 00:30:56;;;;;;;;;;;11.30;86.60;;;;;;5033983;28;20397;-72
2023/06/14 00:33:22;;;;;;;;;;;11.30;87.00;;;;;;5033954;28;20335;-71
2023/06/14 00:35:48;;;;;;;;;;;11.30;87.20;;;;;;5033953;28;19909;-71
2023/06/14 00:38:13;;;;;;;;;;;11.30;87.50;;;;;;5033886;28;20331;-72
2023/06/14 00:40:39;;;;;;;;;;;11.30;87.60;;;;;;5032568;28;19999;-72
2023/06/14 00:43:04;;;;;;;;;;;11.20;87.20;;;;;;5033055;28;20276;-72
2023/06/14 00:45:31;;;;;;;;;;;11.10;87.20;;;;;;5033597;28;20373;-71
2023/06/14 00:47:57;;;;;;;;;;;11.10;87.30;;;;;;5033971;28;19920;-72
2023/06/14 00:50:23;;;;;;;;;;;11.00;87.40;;;;;;5034185;28;19905;-72
2023/06/14 00:52:48;;;;;;;;;;;10.90;87.70;;;;;;5034128;28;19916;-70
2023/06/14 00:55:14;;;;;;;;;;;10.80;88.20;;;;;;5033562;28;19909;-69
2023/06/14 00:57:40;;;;;;;;;;;10.80;88.80;;;;;;5033574;28;19955;-69
2023/06/14 01:00:08;;;;;;;;;;;10.80;88.90;;;;;;5033562;28;19909;-70
2023/06/14 01:02:36;;;;;;;;;;;10.80;88.90;;;;;;5033600;28;19962;-70
2023/06/14 01:05:02;;;;;;;;;;;10.80;89.40;;;;;;5033513;28;19905;-69
2023/06/14 01:07:37;;;;;;;;;;;10.80;89.20;;;;;;5033356;28;20380;-70
2023/06/14 01:10:05;;;;;;;;;;;10.70;89.10;;;;;;5034051;28;19906;-70
2023/06/14 01:12:41;;;;;;;;;;;10.70;89.60;;;;;;5033389;28;19911;-70
2023/06/14 01:15:08;;;;;;;;;;;10.60;89.70;;;;;;5033481;28;19959;-70
2023/06/14 01:17:34;;;;;;;;;;;10.60;89.70;;;;;;5033428;28;19955;-70
2023/06/14 01:20:02;;;;;;;;;;;10.60;90.10;;;;;;5033343;28;19925;-71
2023/06/14 01:22:28;;;;;;;;;;;10.60;90.00;;;;;;5036341;28;19905;-71
2023/06/14 01:24:57;;;;;;;;;;;10.50;90.00;;;;;;5035938;28;19905;-71
2023/06/14 01:27:32;;;;;;;;;;;10.50;90.10;;;;;;5036133;28;19913;-71
2023/06/14 01:29:59;;;;;;;;;;;10.40;89.90;;;;;;5037580;28;20351;-71
2023/06/14 01:32:26;;;;;;;;;;;10.30;90.20;;;;;;5036628;28;20357;-71
2023/06/14 01:34:52;;;;;;;;;;;10.10;90.50;;;;;;5037161;28;19909;-71
2023/06/14 01:37:18;;;;;;;;;;;10.10;90.80;;;;;;5036015;28;19915;-71
2023/06/14 01:39:44;;;;;;;;;;;10.10;91.00;;;;;;5037103;28;19909;-70
2023/06/14 01:42:10;;;;;;;;;;;10.00;91.00;;;;;;5037075;28;19941;-70
2023/06/14 01:44:37;;;;;;;;;;;10.00;91.20;;;;;;5036980;28;19913;-71
2023/06/14 01:47:02;;;;;;;;;;;9.90;91.30;;;;;;5035658;28;20357;-71
2023/06/14 01:49:28;;;;;;;;;;;9.80;91.50;;;;;;5037283;28;19911;-70
2023/06/14 01:51:53;;;;;;;;;;;9.80;91.60;;;;;;5035668;28;19909;-70
2023/06/14 01:54:19;;;;;;;;;;;9.80;91.70;;;;;;5036757;28;20000;-70
2023/06/14 01:56:45;;;;;;;;;;;9.70;91.80;;;;;;5035521;28;20313;-71
2023/06/14 01:59:10;;;;;;;;;;;9.70;91.90;;;;;;5037029;28;19991;-71
2023/06/14 02:01:36;;;;;;;;;;;9.70;92.00;;;;;;5036679;28;19920;-71
2023/06/14 02:04:02;;;;;;;;;;;9.60;92.00;;;;;;5037165;28;20396;-71
2023/06/14 02:06:28;;;;;;;;;;;9.60;92.20;;;;;;5036544;28;20294;-70
2023/06/14 02:08:53;;;;;;;;;;;9.70;92.30;;;;;;5036853;28;20417;-71
2023/06/14 02:11:19;;;;;;;;;;;9.70;92.40;;;;;;5036509;28;19964;-71
2023/06/14 02:13:45;;;;;;;;;;;9.60;92.50;;;;;;5036431;28;19912;-71
2023/06/14 02:16:11;;;;;;;;;;;9.60;93.10;;;;;;5036398;28;20281;-71
2023/06/14 02:18:36;;;;;;;;;;;9.60;93.00;;;;;;5036229;28;19920;-71
2023/06/14 02:21:02;;;;;;;;;;;9.60;93.30;;;;;;5035135;28;20327;-71
2023/06/14 02:23:27;;;;;;;;;;;9.60;93.30;;;;;;5034945;28;19909;-71
2023/06/14 02:25:53;;;;;;;;;;;9.60;93.40;;;;;;5034927;28;19913;-71
2023/06/14 02:28:18;;;;;;;;;;;9.60;93.50;;;;;;5036719;28;20360;-71
2023/06/14 02:30:44;;;;;;;;;;;9.60;93.60;;;;;;5034874;28;20345;-71
2023/06/14 02:33:12;;;;;;;;;;;9.60;93.70;;;;;;5035427;28;20356;-71
2023/06/14 02:35:38;;;;;;;;;;;9.50;93.60;;;;;;5035993;28;20352;-71
2023/06/14 02:38:03;;;;;;;;;;;9.40;93.80;;;;;;5035995;28;19916;-71
2023/06/14 02:40:29;;;;;;;;;;;9.40;94.20;;;;;;5036036;28;19905;-71
2023/06/14 02:42:55;;;;;;;;;;;9.40;94.50;;;;;;5036189;28;19937;-71
2023/06/14 02:45:20;;;;;;;;;;;9.30;94.80;;;;;;5035768;28;19909;-70
2023/06/14 02:47:46;;;;;;;;;;;9.10;95.30;;;;;;5035838;28;19983;-70
2023/06/14 02:50:12;;;;;;;;;;;9.00;95.80;;;;;;5034635;28;19909;-70
2023/06/14 02:52:37;;;;;;;;;;;8.90;96.10;;;;;;5035797;28;19905;-70
2023/06/14 02:55:03;;;;;;;;;;;8.80;96.50;;;;;;5034337;28;19909;-71
2023/06/14 02:57:29;;;;;;;;;;;8.80;97.00;;;;;;5035597;28;19989;-70
2023/06/14 02:59:55;;;;;;;;;;;8.90;97.30;;;;;;5035613;28;19996;-70
2023/06/14 03:02:20;;;;;;;;;;;8.80;97.40;;;;;;5035571;28;20000;-71
2023/06/14 03:04:47;;;;;;;;;;;8.90;97.60;;;;;;5035403;28;19913;-71
2023/06/14 03:07:13;;;;;;;;;;;8.90;97.80;;;;;;5034250;28;20289;-70
2023/06/14 03:09:38;;;;;;;;;;;8.90;98.00;;;;;;5034244;28;19909;-71
2023/06/14 03:12:06;;;;;;;;;;;8.80;98.20;;;;;;5034471;28;20366;-70
2023/06/14 03:14:31;;;;;;;;;;;8.80;98.40;;;;;;5035316;28;19912;-70
2023/06/14 03:16:57;;;;;;;;;;;8.80;98.70;;;;;;5035390;28;19909;-70
2023/06/14 03:19:23;;;;;;;;;;;8.90;98.90;;;;;;5034012;28;19917;-70
2023/06/14 03:21:49;;;;;;;;;;;8.80;99.10;;;;;;5035669;28;19909;-71
2023/06/14 03:24:16;;;;;;;;;;;8.90;99.40;;;;;;5035195;28;19932;-71
2023/06/14 03:26:41;;;;;;;;;;;8.90;99.60;;;;;;5035011;28;19916;-71
2023/06/14 03:29:07;;;;;;;;;;;8.90;99.90;;;;;;5035174;28;20309;-71
2023/06/14 03:31:34;;;;;;;;;;;8.90;99.90;;;;;;5035063;28;20046;-71
2023/06/14 03:34:00;;;;;;;;;;;8.90;99.90;;;;;;5035157;28;19916;-71
2023/06/14 03:36:27;;;;;;;;;;;8.90;99.90;;;;;;5034902;28;19905;-71
2023/06/14 03:38:53;;;;;;;;;;;8.90;99.90;;;;;;5035136;28;20250;-71
2023/06/14 03:41:18;;;;;;;;;;;8.80;99.90;;;;;;5034296;28;19915;-71
2023/06/14 03:43:44;;;;;;;;;;;8.70;99.90;;;;;;5034848;28;20428;-71
2023/06/14 03:46:09;;;;;;;;;;;8.60;99.90;;;;;;5033816;28;19936;-71
2023/06/14 03:48:35;;;;;;;;;;;8.60;99.90;;;;;;5033876;28;20376;-71
2023/06/14 03:51:02;;;;;;;;;;;8.60;99.90;;;;;;5034730;28;20380;-71
2023/06/14 03:53:29;;;;;;;;;;;8.50;99.90;;;;;;5034622;28;19916;-72
2023/06/14 03:55:54;;;;;;;;;;;8.50;99.90;;;;;;5034216;28;19992;-71
2023/06/14 03:58:20;;;;;;;;;;;8.40;99.90;;;;;;5033454;28;19940;-71
2023/06/14 04:00:45;;;;;;;;;;;8.40;99.90;;;;;;5034828;28;20401;-71
2023/06/14 04:03:13;;;;;;;;;;;8.40;99.90;;;;;;5034527;28;19905;-71
2023/06/14 04:05:41;;;;;;;;;;;8.50;99.90;;;;;;5034556;28;19916;-70
2023/06/14 04:08:08;;;;;;;;;;;8.50;99.90;;;;;;5034429;28;20365;-70
2023/06/14 04:10:34;;;;;;;;;;;8.50;99.90;;;;;;5034680;28;20305;-71
2023/06/14 04:13:00;;;;;;;;;;;8.50;99.90;;;;;;5034420;28;19909;-71
2023/06/14 04:15:27;;;;;;;;;;;8.40;99.90;;;;;;5034207;28;19958;-71
2023/06/14 04:17:57;;;;;;;;;;;8.40;99.90;;;;;;5033033;28;19917;-71
2023/06/14 04:20:23;;;;;;;;;;;8.40;99.90;;;;;;5034174;28;20299;-71
2023/06/14 04:22:49;;;;;;;;;;;8.50;99.90;;;;;;5034255;28;20275;-71
2023/06/14 04:25:15;;;;;;;;;;;8.50;99.90;;;;;;5034013;28;19987;-71
2023/06/14 04:27:41;;;;;;;;;;;8.60;99.90;;;;;;5034428;28;19932;-71
2023/06/14 04:30:07;;;;;;;;;;;8.60;99.90;;;;;;5032813;28;19912;-71
2023/06/14 04:32:39;;;;;;;;;;;8.60;99.90;;;;;;5033996;28;20287;-71
2023/06/14 04:35:06;;;;;;;;;;;8.60;99.90;;;;;;5034015;28;19905;-71
2023/06/14 04:37:31;;;;;;;;;;;8.70;99.90;;;;;;5033886;28;19908;-71
2023/06/14 04:39:57;;;;;;;;;;;8.70;99.90;;;;;;5033900;28;19905;-70
2023/06/14 04:42:25;;;;;;;;;;;8.70;99.90;;;;;;5033863;28;20361;-71
2023/06/14 04:44:51;;;;;;;;;;;8.70;99.90;;;;;;5033679;28;19905;-71
2023/06/14 04:47:17;;;;;;;;;;;8.70;99.90;;;;;;5033765;28;19963;-70
2023/06/14 04:49:42;;;;;;;;;;;8.70;99.90;;;;;;5032216;28;19913;-71
2023/06/14 04:52:10;;;;;;;;;;;8.70;99.90;;;;;;5033481;28;19920;-71
2023/06/14 04:54:38;;;;;;;;;;;8.80;99.90;;;;;;5032663;28;19913;-71
2023/06/14 04:57:05;;;;;;;;;;;8.80;99.90;;;;;;5031726;28;19905;-71
2023/06/14 04:59:33;;;;;;;;;;;8.80;99.90;;;;;;5032684;28;19916;-72
2023/06/14 05:01:59;;;;;;;;;;;8.80;99.90;;;;;;5033356;28;19960;-71
2023/06/14 05:04:26;;;;;;;;;;;8.90;99.90;;;;;;5033482;28;19905;-71
2023/06/14 05:06:54;;;;;;;;;;;8.90;99.90;;;;;;5033511;28;19963;-71
2023/06/14 05:09:19;;;;;;;;;;;8.90;99.90;;;;;;5033531;28;19905;-71
2023/06/14 05:11:45;;;;;;;;;;;8.90;99.90;;;;;;5033601;28;20004;-71
2023/06/14 05:14:11;;;;;;;;;;;8.90;99.90;;;;;;5033485;28;20357;-71
2023/06/14 05:16:37;;;;;;;;;;;8.90;99.90;;;;;;5033456;28;20246;-71
2023/06/14 05:19:04;;;;;;;;;;;8.90;99.90;;;;;;5033370;28;19912;-71
2023/06/14 05:21:31;;;;;;;8.23;4.30;;;9.00;99.90;;;;;;5033040;28;20100;-71
2023/06/14 05:23:57;;;;;;;7.22;4.32;;;9.10;99.90;;;;;;5033137;28;20057;-71
2023/06/14 05:26:25;;;;;;;7.00;3.67;;;9.10;99.90;;;;;;5032887;28;20068;-71
2023/06/14 05:28:52;;;;;;;6.18;3.85;;;9.20;99.90;;;;;;5033087;28;20022;-71
2023/06/14 05:31:18;;;;;;;9.90;4.70;;;9.30;99.90;;;;;;5032879;28;20045;-71
2023/06/14 05:33:43;;;;;;;9.75;5.55;;;9.30;99.90;;;;;;5032739;28;20060;-71
2023/06/14 05:36:09;;;;;;;11.40;5.80;;;9.40;99.90;;;;;;5033092;28;20033;-71
2023/06/14 05:38:35;;;;;;;;;;;9.40;99.90;;;;;;5033466;28;20425;-71
2023/06/14 05:41:01;;;;;;;;;;;9.50;99.90;;;;;;5033218;28;20006;-71
2023/06/14 05:43:26;;;;;;;;;;;9.60;99.90;;;;;;5033891;28;20276;-71
2023/06/14 05:45:52;;;;;;;;;;;9.60;99.90;;;;;;5033321;28;20017;-71
2023/06/14 05:48:17;;;;;;;;;;;9.70;99.90;;;;;;5032221;28;19920;-71
2023/06/14 05:50:43;;;;;;;;;;;9.80;99.90;;;;;;5033069;28;19909;-71
2023/06/14 05:53:08;;;;;;;;;;;9.90;99.90;;;;;;5031915;28;19915;-71
2023/06/14 05:55:34;;;;;;;;;;;9.90;99.90;;;;;;5033046;28;19936;-71
2023/06/14 05:57:59;;;;;;;;;;;10.00;99.90;;;;;;5033107;28;19919;-71
2023/06/14 06:00:25;;;;;;;;;;;10.10;99.90;;;;;;5033380;28;19955;-71
2023/06/14 06:02:50;;;;;;;;;;;10.20;99.90;;;;;;5033260;28;19916;-71
2023/06/14 06:05:16;;;;;;;;;;;10.30;99.90;;;;;;5033016;28;20369;-71
2023/06/14 06:07:44;;;;;;;;;;;10.40;99.90;;;;;;5032292;28;19909;-71
2023/06/14 06:10:09;;;;;;;;;;;10.50;99.90;;;;;;5037045;28;19905;-71
2023/06/14 06:12:35;;;;;;;;;;;10.60;99.90;;;;;;5036944;28;19909;-71
2023/06/14 06:15:00;;;;;;;;;;;10.80;99.90;;;;;;5036483;28;20391;-71
2023/06/14 06:17:26;;;;;;;;;;;10.90;99.90;;;;;;5036470;28;20304;-71
2023/06/14 06:19:52;;;;;;;;;;;11.00;99.90;;;;;;5036519;28;19972;-71
2023/06/14 06:22:17;;;;;;;;;;;11.20;99.90;;;;;;5036412;28;19988;-71
2023/06/14 06:24:43;;;;;;;;;;;11.30;99.90;;;;;;5036621;28;19991;-71
2023/06/14 06:27:09;;;;;;;15.13;10.23;;;11.50;99.90;;;;;;5035961;28;19963;-71
2023/06/14 06:29:35;;;;;;;13.88;9.43;;;11.50;99.90;;;;;;5035782;28;20029;-71
2023/06/14 06:32:01;;;;;;;15.25;9.82;;;11.70;99.90;;;;;;5035838;28;20040;-71
2023/06/14 06:34:27;;;;;;;14.73;9.25;;;11.80;99.90;;;;;;5035663;28;20061;-71
2023/06/14 06:36:53;;;;;;;15.02;10.27;;;11.90;99.90;;;;;;5036029;28;20386;-72
2023/06/14 06:39:19;;;;;;;14.85;8.88;;;12.00;99.90;;;;;;5035725;28;20025;-72
2023/06/14 06:41:44;;;;;;;11.15;7.85;;;12.10;99.90;;;;;;5035885;28;20029;-72
2023/06/14 06:44:10;;;;;;;13.57;9.32;;;12.10;99.90;;;;;;5035532;28;20474;-72
2023/06/14 06:46:39;;;;;;;13.20;8.52;;;12.20;99.90;;;;;;5035441;28;20028;-72
2023/06/14 06:49:06;;;;;;;11.25;8.68;;;12.30;99.70;;;;;;5036092;28;20025;-72
2023/06/14 06:51:32;;;;;;;12.90;8.55;;;12.40;99.80;;;;;;5034274;28;20481;-72
2023/06/14 06:53:57;;;;;;;;;;;12.50;99.50;;;;;;5035709;28;19934;-72
2023/06/14 06:56:24;;;;;;;;;;;12.70;99.50;;;;;;5035808;28;19905;-75
2023/06/14 06:58:50;;;;;;;;;;;12.80;98.30;;;;;;5035739;28;20293;-72
2023/06/14 07:01:15;;;;;;;;;;;12.90;98.20;;;;;;5036071;28;19909;-72
2023/06/14 07:03:41;;;;;;;;;;;13.10;98.30;;;;;;5036137;28;19905;-72
2023/06/14 07:06:07;;;;;;;;;;;13.20;97.60;;;;;;5035559;28;19913;-73
2023/06/14 07:08:32;;;;;;;;;;;13.40;97.20;;;;;;5035653;28;19916;-73
2023/06/14 07:10:58;;;;;;;;;;;13.50;96.20;;;;;;5035476;28;19995;-73
2023/06/14 07:13:23;;;;;;;;;;;13.70;96.00;;;;;;5035454;28;20326;-73
2023/06/14 07:15:49;;;;;;;;;;;13.90;95.60;;;;;;5036075;28;20373;-73
2023/06/14 07:18:15;;;;;;;;;;;14.10;94.50;;;;;;5034142;28;20327;-73
2023/06/14 07:20:42;;;;;;;;;;;14.20;92.50;;;;;;5035143;28;20332;-74
2023/06/14 07:23:08;;;;;;;;;;;14.40;92.20;;;;;;5035576;28;19915;-73
2023/06/14 07:25:33;;;;;;;;;;;14.50;92.90;;;;;;5033797;28;19988;-73
2023/06/14 07:27:59;;;;;;;;;;;14.70;91.80;;;;;;5035254;28;19995;-73
2023/06/14 07:30:26;;;;;;;;;;;14.80;91.40;;;;;;5035254;28;19905;-74
2023/06/14 07:32:53;;;;;;;;;;;14.90;91.70;;;;;;5035432;28;20392;-73
2023/06/14 07:35:18;;;;;;;;;;;15.00;90.60;;;;;;5034971;28;19908;-74
2023/06/14 07:37:45;;;;;;;;;;;15.20;90.90;;;;;;5034967;28;20016;-73
2023/06/14 07:40:11;;;;;;;;;;;15.30;89.30;;;;;;5034951;28;19905;-73
2023/06/14 07:42:36;;;;;;;;;;;15.50;87.60;;;;;;5034918;28;19913;-73
2023/06/14 07:45:06;;;;;;;;;;;15.60;87.90;;;;;;5035058;28;19948;-73
2023/06/14 07:47:31;;;;;;;;;;;15.80;86.30;;;;;;5034681;28;19948;-73
2023/06/14 07:49:57;;;;;;;;;;;16.00;84.50;;;;;;5034579;28;19959;-73
2023/06/14 07:52:22;;;;;;;;;;;16.10;80.30;;;;;;5034747;28;19911;-73
2023/06/14 07:54:48;;;;;;;;;;;16.30;81.50;;;;;;5034732;28;19908;-73
2023/06/14 07:57:14;;;;;;;;;;;16.50;83.40;;;;;;5034657;28;19909;-74
2023/06/14 07:59:39;;;;;;;;;;;16.70;81.00;;;;;;5034936;28;19916;-73
2023/06/14 08:02:05;;;;;;;;;;;16.90;80.90;;;;;;5035017;28;20007;-73
2023/06/14 08:04:31;;;;;;;;;;;17.10;79.30;;;;;;5034470;28;20361;-73
2023/06/14 08:06:57;;;;;;;;;;;17.30;80.20;;;;;;5034690;28;19919;-74
2023/06/14 08:09:22;;;;;;;;;;;17.40;78.00;;;;;;5034344;28;19905;-73
2023/06/14 08:11:48;;;;;;;;;;;17.50;77.30;;;;;;5034332;28;20364;-74
2023/06/14 08:14:13;;;;;;;;;;;17.60;77.10;;;;;;5034411;28;19912;-73
2023/06/14 08:16:39;;;;;;;;;;;17.80;77.90;;;;;;5034585;28;19909;-74
2023/06/14 08:19:05;;;;;;;;;;;17.90;78.50;;;;;;5034178;28;19913;-74
2023/06/14 08:21:33;;;;;;;;;;;18.00;78.70;;;;;;5034223;28;19909;-73
2023/06/14 08:23:59;;;;;;;;;;;18.20;77.60;;;;;;5032875;28;19917;-73
2023/06/14 08:26:28;;;;;;;;;;;18.30;75.70;;;;;;5034323;28;19909;-74
2023/06/14 08:28:54;;;;;;;;;;;18.50;76.80;;;;;;5034119;28;19909;-74
2023/06/14 08:31:20;;;;;;;;;;;18.70;75.50;;;;;;5033400;28;19924;-74
2023/06/14 08:33:46;;;;;;;;;;;18.80;73.40;;;;;;5034278;28;20321;-73
2023/06/14 08:36:12;;;;;;;;;;;18.90;73.20;;;;;;5033918;28;19905;-74
2023/06/14 08:38:38;;;;;;;;;;;19.10;74.40;;;;;;5032954;28;20285;-74
2023/06/14 08:41:05;;;;;;;;;;;19.30;73.10;;;;;;5033902;28;19959;-74
2023/06/14 08:43:31;;;;;;;;;;;19.50;71.50;;;;;;5034011;28;19905;-74
2023/06/14 08:46:00;;;;;;;;;;;19.70;70.70;;;;;;5033692;28;19923;-74
2023/06/14 08:48:26;;;;;;;;;;;19.80;66.60;;;;;;5033855;28;19944;-74
2023/06/14 08:50:54;;;;;;;;;;;19.90;65.50;;;;;;5033734;28;19905;-74
2023/06/14 08:53:21;;;;;;;;;;;20.00;63.60;;;;;;5033944;28;19909;-73
2023/06/14 08:55:47;;;;;;;;;;;20.20;64.70;;;;;;5033123;28;20048;-74
2023/06/14 08:58:14;;;;;;;;;;;20.30;60.70;;;;;;5033731;28;19909;-74
2023/06/14 09:00:41;;;;;;;;;;;20.50;59.40;;;;;;5034004;28;19927;-74
2023/06/14 09:03:12;;;;;;;;;;;20.60;62.60;;;;;;5033636;28;20094;-74
2023/06/14 09:05:38;;;;;;;;;;;20.80;58.20;;;;;;5033508;28;19905;-73
2023/06/14 09:08:05;;;;;;;;;;;20.90;57.00;;;;;;5033616;28;19955;-74
2023/06/14 09:10:33;;;;;;;;;;;21.00;57.20;;;;;;5033593;28;19991;-74
2023/06/14 09:13:00;;;;;;;;;;;21.20;55.80;;;;;;5032450;28;19916;-74
2023/06/14 09:15:26;;;;;;;;;;;21.30;55.30;;;;;;5035165;28;20373;-74
2023/06/14 09:17:53;;;;;;;;;;;21.30;54.40;;;;;;5033690;28;19949;-74
2023/06/14 09:20:18;;;;;;;;;;;21.40;54.70;;;;;;5033438;28;19948;-74
2023/06/14 09:22:44;;;;;;;;;;;21.50;53.10;;;;;;5033468;28;19909;-74
2023/06/14 09:25:10;;;;;;;;;;;21.50;52.70;;;;;;5033431;28;20310;-74
2023/06/14 09:27:35;;;;;;;;;;;21.60;50.50;;;;;;5033874;28;19945;-74
2023/06/14 09:30:05;;;;;;;;;;;21.70;52.80;;;;;;5033296;28;19905;-74
2023/06/14 09:32:30;;;;;;;;;;;21.80;51.60;;;;;;5033308;28;19905;-74
2023/06/14 09:34:56;;;;;;;;;;;21.90;53.00;;;;;;5033479;28;19909;-74
2023/06/14 09:37:31;;;;;;;;;;;22.00;50.90;;;;;;5033576;28;19912;-75
2023/06/14 09:39:56;;;;;;;;;;;22.10;52.90;;;;;;5033321;28;20312;-74
2023/06/14 09:42:25;;;;;;;;;;;22.20;51.00;;;;;;5034383;28;19909;-74
2023/06/14 09:44:52;;;;;;;;;;;22.30;51.50;;;;;;5037305;28;20046;-74
2023/06/14 09:47:17;;;;;;;;;;;22.40;49.40;;;;;;5037174;28;19917;-74
2023/06/14 09:49:43;;;;;;;;;;;22.40;49.20;;;;;;5037234;28;19912;-75
2023/06/14 09:52:10;;;;;;;;;;;22.40;48.00;;;;;;5036983;28;19905;-75
2023/06/14 09:54:40;;;;;;;;;;;22.40;48.80;;;;;;5036974;28;20018;-74
2023/06/14 09:57:06;;;;;;;;;;;22.50;48.40;;;;;;5036896;28;19905;-75
2023/06/14 09:59:32;;;;;;;;;;;22.50;49.50;;;;;;5036873;28;19909;-75
2023/06/14 10:01:59;;;;;;;;;;;22.60;51.20;;;;;;5037109;28;19927;-75
2023/06/14 10:04:25;;;;;;;;;;;22.80;50.70;;;;;;5036747;28;20389;-74
2023/06/14 10:06:50;;;;;;;;;;;22.80;49.10;;;;;;5036589;28;19909;-74
2023/06/14 10:09:16;;;;;;;;;;;22.80;50.30;;;;;;5035551;28;20422;-75
2023/06/14 10:11:44;;;;;;;;;;;22.80;51.60;;;;;;5036793;28;19909;-74
2023/06/14 10:14:11;;;;;;;;;;;22.90;51.20;;;;;;5035266;28;19915;-75
2023/06/14 10:16:49;;;;;;;;;;;23.00;50.90;;;;;;5036584;28;19948;-74
2023/06/14 10:19:35;;;;;;;;;;;23.00;51.10;;;;;;5034988;28;19913;-75
2023/06/14 10:22:00;;;;;;;;;;;23.00;52.80;;;;;;5036400;28;19909;-75
2023/06/14 10:24:48;;;;;;;;;;;23.10;49.70;;;;;;5036133;28;19905;-75
2023/06/14 10:27:14;;;;;;;;;;;23.20;50.30;;;;;;5035166;28;19909;-76
2023/06/14 10:29:58;;;;;;;;;;;23.20;51.90;;;;;;5036542;28;19909;-75
2023/06/14 10:32:25;;;;;;;;;;;23.30;52.50;;;;;;5036630;28;20361;-75
2023/06/14 10:34:57;;;;;;;;;;;23.30;52.20;;;;;;5036122;28;19950;-75
2023/06/14 10:37:24;;;;;;;;;;;23.40;51.20;;;;;;5036436;28;19909;-74
2023/06/14 10:39:50;;;;;;;;;;;23.40;51.40;;;;;;5034671;28;19905;-74
2023/06/14 10:42:15;;;;;;;;;;;23.40;52.90;;;;;;5036055;28;20266;-75
2023/06/14 10:44:45;;;;;;;;;;;23.50;52.40;;;;;;5036029;28;19909;-74
2023/06/14 10:47:20;;;;;;;;;;;23.50;52.10;;;;;;5035836;28;20427;-75
2023/06/14 10:49:51;;;;;;;;;;;23.50;52.00;;;;;;5036264;28;19905;-75
2023/06/14 10:52:20;;;;;;;;;;;23.40;52.90;;;;;;5035785;28;20391;-75
2023/06/14 10:55:05;;;;;;;;;;;23.40;53.00;;;;;;5035115;28;20284;-74
2023/06/14 10:57:32;;;;;;;;;;;23.50;51.70;;;;;;5036007;28;19912;-75
2023/06/14 10:59:58;;;;;;;;;;;23.60;51.90;;;;;;5035843;28;20284;-74
2023/06/14 11:02:23;;;;;;;;;;;23.80;50.70;;;;;;5035939;28;19905;-75
2023/06/14 11:04:50;;;;;;;;;;;23.90;51.70;;;;;;5035806;28;19905;-74
2023/06/14 11:07:34;;;;;;;;;;;24.00;50.60;;;;;;5035470;28;20365;-77
2023/06/14 11:10:02;;;;;;;;;;;24.00;49.80;;;;;;5034202;28;19987;-74
2023/06/14 11:12:31;;;;;;;;;;;24.00;52.30;;;;;;5035450;28;19948;-75
2023/06/14 11:14:57;;;;;;;;;;;24.00;51.70;;;;;;5035372;28;20412;-74
2023/06/14 11:17:22;;;;;;;;;;;24.10;50.00;;;;;;5034393;28;19909;-73
2023/06/14 11:19:48;;;;;;;;;;;24.20;49.80;;;;;;5035400;28;20008;-74
2023/06/14 11:22:14;;;;;;;;;;;24.20;47.90;;;;;;5035308;28;20301;-73
2023/06/14 11:24:40;;;;;;;;;;;24.10;49.00;;;;;;5035051;28;19952;-73
2023/06/14 11:27:06;;;;;;;;;;;23.90;48.70;;;;;;5035065;28;19960;-72
2023/06/14 11:29:31;;;;;;;;;;;23.80;53.50;;;;;;5035126;28;20353;-73
2023/06/14 11:31:57;;;;;;;;;;;23.80;51.20;;;;;;5035074;28;20377;-73
2023/06/14 11:34:22;;;;;;;;;;;23.90;53.30;;;;;;5034934;28;20362;-73
2023/06/14 11:36:48;;;;;;;;;;;24.00;51.40;;;;;;5035194;28;19909;-74
2023/06/14 11:39:13;;;;;;;;;;;24.10;51.30;;;;;;5034853;28;19909;-73
2023/06/14 11:41:41;;;;;;;;;;;24.10;51.80;;;;;;5035188;28;19976;-74
2023/06/14 11:44:07;;;;;;;;;;;24.20;50.30;;;;;;5034744;28;19992;-73
2023/06/14 11:46:33;;;;;;;;;;;24.20;51.70;;;;;;5034795;28;20002;-73
2023/06/14 11:48:58;;;;;;;;;;;24.30;53.30;;;;;;5034763;28;19967;-74
2023/06/14 11:51:24;;;;;;;;;;;24.40;52.40;;;;;;5033973;28;20440;-73
2023/06/14 11:53:50;;;;;;;;;;;24.40;51.00;;;;;;5034916;28;19909;-75
2023/06/14 11:56:16;;;;;;;;;;;24.40;50.60;;;;;;5033964;28;20361;-75
2023/06/14 11:58:45;;;;;;;;;;;24.40;49.90;;;;;;5034528;28;19905;-74
2023/06/14 12:01:14;;;;;;;;;;;24.40;52.60;;;;;;5033721;28;19963;-73
2023/06/14 12:03:46;;;;;;;;;;;24.40;50.80;;;;;;5033765;28;19909;-74
2023/06/14 12:06:11;;;;;;;;;;;24.50;50.70;;;;;;5045354;28;19920;-73
2023/06/14 12:08:41;;;;;;;;;;;24.60;49.80;;;;;;5031905;28;20292;-73
2023/06/14 12:11:10;;;;;;;;;;;24.40;51.60;;;;;;5033672;28;19920;-73
2023/06/14 12:13:38;;;;;;;;;;;24.50;51.30;;;;;;5034172;28;19905;-73
2023/06/14 12:16:03;;;;;;;;;;;24.50;50.30;;;;;;5034123;28;19911;-73
2023/06/14 12:18:36;;;;;;;;;;;24.60;52.10;;;;;;5034219;28;20015;-74
2023/06/14 12:21:02;;;;;;;;;;;24.60;50.40;;;;;;5033537;28;19966;-73
2023/06/14 12:23:40;;;;;;;;;;;24.50;51.20;;;;;;5034097;28;19905;-73
2023/06/14 12:26:06;;;;;;;;;;;24.40;50.00;;;;;;5032616;28;20019;-72
2023/06/14 12:28:31;;;;;;;;;;;24.20;51.20;;;;;;5037643;28;20384;-72
2023/06/14 12:30:58;;;;;;;;;;;24.20;53.70;;;;;;5051930;28;20288;-73
2023/06/14 12:33:24;;;;;;;;;;;24.10;51.80;;;;;;5052318;28;19986;-72
2023/06/14 12:35:50;;;;;;;;;;;24.20;51.00;;;;;;5033117;28;19967;-72
2023/06/14 12:38:16;;;;;;;;;;;24.30;53.10;;;;;;5033229;28;19920;-72
2023/06/14 12:40:42;;;;;;;;;;;24.30;53.20;;;;;;5033832;28;19909;-72
2023/06/14 12:43:07;;;;;;;;;;;24.30;51.40;;;;;;5034028;28;19920;-73
2023/06/14 12:45:33;;;;;;;;;;;24.20;51.60;;;;;;5033619;28;19984;-73
2023/06/14 12:47:58;;;;;;;;;;;24.20;53.30;;;;;;5032984;28;19909;-72
2023/06/14 12:50:24;;;;;;;;;;;24.40;52.50;;;;;;5033165;28;19972;-73
2023/06/14 12:52:49;;;;;;;;;;;24.60;53.40;;;;;;5033585;28;19916;-73
2023/06/14 12:55:15;;;;;;;;;;;24.80;49.50;;;;;;5033517;28;19909;-73
2023/06/14 12:57:41;;;;;;;;;;;24.80;51.00;;;;;;5033629;28;19909;-73
2023/06/14 13:00:07;;;;;;;;;;;24.90;51.20;;;;;;5033571;28;19913;-73
2023/06/14 13:02:33;;;;;;;;;;;24.90;49.40;;;;;;5033561;28;20385;-73
2023/06/14 13:04:58;;;;;;;;;;;24.80;49.30;;;;;;5033500;28;19916;-73
2023/06/14 13:07:24;;;;;;;;;;;24.80;49.90;;;;;;5034010;28;19960;-73
2023/06/14 13:09:50;;;;;;;;;;;24.70;49.20;;;;;;5032132;28;19944;-73
2023/06/14 13:12:15;;;;;;;;;;;24.60;49.80;;;;;;5033181;28;19906;-73
2023/06/14 13:14:41;;;;;;;;;;;24.70;50.00;;;;;;5031766;28;19909;-74
2023/06/14 13:17:08;;;;;;;;;;;25.00;51.70;;;;;;5033795;28;19909;-74
2023/06/14 13:19:34;;;;;;;;;;;25.30;50.50;;;;;;5037346;28;19913;-73
2023/06/14 13:21:59;;;;;;;;;;;25.50;47.60;;;;;;5037740;28;19988;-73
2023/06/14 13:24:25;;;;;;;;;;;25.50;48.80;;;;;;5037340;28;19909;-74
2023/06/14 13:26:50;;;;;;;;;;;25.50;48.70;;;;;;5037309;28;19920;-73
2023/06/14 13:29:16;;;;;;;;;;;25.60;49.20;;;;;;5037302;28;20365;-73
2023/06/14 13:31:41;;;;;;;;;;;25.40;49.60;;;;;;5037315;28;20369;-73
2023/06/14 13:34:07;;;;;;;;;;;25.40;49.50;;;;;;5037152;28;20011;-73
2023/06/14 13:36:33;;;;;;;;;;;25.40;50.00;;;;;;5037273;28;19952;-73
2023/06/14 13:38:58;;;;;;;;;;;25.40;48.40;;;;;;5037164;28;19916;-73
2023/06/14 13:41:31;;;;;;;;;;;25.20;48.90;;;;;;5037373;28;19909;-74
2023/06/14 13:43:57;;;;;;;;;;;25.20;48.90;;;;;;5037005;28;20333;-73
2023/06/14 13:46:22;;;;;;;;;;;25.10;49.40;;;;;;5036958;28;19996;-73
2023/06/14 13:48:48;;;;;;;;;;;25.10;50.50;;;;;;5037066;28;20317;-73
2023/06/14 13:51:13;;;;;;;;;;;25.00;49.70;;;;;;5036923;28;19915;-74
2023/06/14 13:53:39;;;;;;;;;;;25.00;49.00;;;;;;5036968;28;20007;-73
2023/06/14 13:56:04;;;;;;;;;;;24.90;49.60;;;;;;5036756;28;19909;-73
2023/06/14 13:58:30;;;;;;;;;;;24.80;50.00;;;;;;5036713;28;19905;-73
2023/06/14 14:00:56;;;;;;;;;;;24.60;50.40;;;;;;5035955;28;19916;-73
2023/06/14 14:03:22;;;;;;;;;;;24.60;52.50;;;;;;5035719;28;19975;-73
2023/06/14 14:05:47;;;;;;;;;;;24.80;52.00;;;;;;5035879;28;20289;-73
2023/06/14 14:08:13;;;;;;;;;;;25.10;50.30;;;;;;5035954;28;19905;-73
2023/06/14 14:10:38;;;;;;;;;;;25.20;49.50;;;;;;5035141;28;20021;-73
2023/06/14 14:13:04;;;;;;;;;;;25.20;48.90;;;;;;5036534;28;20396;-73